Time;durP1;ratioP1;P1;durP2;ratioP2;P2;SDS_P1;SDS_P2;PMS_P1;PMS_P2;Temp;Humidity;BMP_temperature;BMP_pressure;BME280_temperature;BME280_humidity;BME280_pressure;Samples;Min_cycle;Max_cycle;Signal;HPM_P1;HPM_P2
2023/04/17 00:01:31;;;;;;;;;20.00;19.67;;;;;9.08;77.90;99400.44;5021485;28;45459;-79
2023/04/17 00:03:56;;;;;;;;;16.33;16.33;;;;;9.07;77.85;99387.31;5019531;28;45497;-80
2023/04/17 00:06:22;;;;;;;;;17.33;15.00;;;;;9.07;77.93;99395.22;5018794;28;45577;-79
2023/04/17 00:08:48;;;;;;;;;18.00;16.67;;;;;9.06;78.02;99396.97;5033462;28;45549;-80
2023/04/17 00:11:14;;;;;;;;;18.33;15.67;;;;;9.09;77.70;99390.78;5017921;28;45459;-80
2023/04/17 00:13:39;;;;;;;;;16.67;13.00;;;;;9.08;77.68;99392.53;5033759;28;45693;-80
2023/04/17 00:16:05;;;;;;;;;13.00;10.25;;;;;9.08;78.12;99415.34;5018148;28;46206;-80
2023/04/17 00:18:31;;;;;;;;;23.67;22.67;;;;;9.09;77.86;99409.19;5017777;28;45475;-81
2023/04/17 00:20:56;;;;;;;;;24.00;22.00;;;;;9.09;77.89;99393.41;5033480;28;45615;-80
2023/04/17 00:23:22;;;;;;;;;19.33;17.33;;;;;9.07;78.32;99406.59;5016861;28;45314;-81
2023/04/17 00:25:47;;;;;;;;;17.33;17.33;;;;;9.08;78.13;99402.19;5032028;28;47263;-79
2023/04/17 00:28:12;;;;;;;;;18.67;15.67;;;;;9.08;78.35;99397.81;5016945;28;45572;-80
2023/04/17 00:30:38;;;;;;;;;16.00;16.00;;;;;9.07;78.44;99392.59;5017356;28;45357;-80
2023/04/17 00:33:03;;;;;;;;;15.33;14.67;;;;;9.05;78.37;99421.56;5031693;28;45507;-80
2023/04/17 00:35:29;;;;;;;;;6.00;6.00;;;;;9.05;78.35;99423.31;5017251;28;46403;-80
2023/04/17 00:37:54;;;;;;;;;11.33;11.33;;;;;9.05;78.60;99403.16;5015740;28;45449;-79
2023/04/17 00:40:19;;;;;;;;;18.33;15.33;;;;;9.05;78.29;99394.41;5017208;28;45526;-80
2023/04/17 00:42:51;;;;;;;;;17.67;17.33;;;;;9.05;78.38;99394.41;5032175;28;45682;-80
2023/04/17 00:45:18;;;;;;;;;17.00;14.67;;;;;9.05;78.53;99395.25;5016201;28;46425;-79
2023/04/17 00:47:43;;;;;;;;;20.33;16.00;;;;;9.06;78.37;99390.84;5016548;28;45369;-81
2023/04/17 00:50:09;;;;;;;;;13.00;13.00;;;;;9.07;78.41;99388.19;5032111;28;45466;-80
2023/04/17 00:52:35;;;;;;;;;14.67;14.33;;;;;9.07;78.57;99384.69;5017114;28;45476;-80
2023/04/17 00:55:01;;;;;;;;;16.67;11.67;;;;;9.05;78.10;99395.25;5015931;28;46381;-80
2023/04/17 00:57:27;;;;;;;;;16.67;15.00;;;;;9.06;78.16;99394.34;5016872;28;45522;-80
2023/04/17 00:59:54;;;;;;;;;21.67;19.67;;;;;9.06;78.49;99391.72;5016947;28;45384;-79
2023/04/17 01:02:20;;;;;;;;;22.33;18.67;;;;;9.04;78.44;99396.19;5016305;28;45347;-79
2023/04/17 01:04:45;;;;;;;;;19.00;17.33;;;;;9.04;78.53;99383.03;5016535;28;45564;-80
2023/04/17 01:07:11;;;;;;;;;19.33;18.67;;;;;9.05;78.46;99382.09;5016285;28;45412;-79
2023/04/17 01:09:37;;;;;;;;;15.67;15.33;;;;;9.04;78.30;99395.31;5031556;28;45356;-80
2023/04/17 01:12:32;;;;;;;;;15.00;14.33;;;;;9.05;78.05;99391.75;5015510;28;45487;-79
2023/04/17 01:14:57;;;;;;;;;12.33;11.33;;;;;9.05;78.38;99376.84;5007669;28;46592;-80
2023/04/17 01:17:26;;;;;;;;;14.33;14.00;;;;;9.08;78.45;99391.69;5015958;28;45437;-80
2023/04/17 01:19:52;;;;;;;;;17.75;15.50;;;;;9.06;78.65;99370.69;5015055;28;45392;-79
2023/04/17 01:22:21;;;;;;;;;23.67;19.33;;;;;9.04;78.33;99375.16;5016286;28;45526;-79
2023/04/17 01:24:49;;;;;;;;;19.33;19.33;;;;;9.03;78.41;99372.56;5015725;28;46250;-79
2023/04/17 01:27:14;;;;;;;;;13.67;13.67;;;;;9.04;78.28;99369.03;5016490;28;45391;-80
2023/04/17 01:29:41;;;;;;;;;14.67;12.67;;;;;9.06;78.03;99372.44;5016655;28;45351;-79
2023/04/17 01:32:07;;;;;;;;;13.75;11.75;;;;;9.07;78.11;99374.16;5031416;28;45854;-80
2023/04/17 01:34:33;;;;;;;;;18.33;17.67;;;;;9.08;78.01;99370.63;5016244;28;46292;-79
2023/04/17 01:36:59;;;;;;;;;14.00;14.00;;;;;9.09;78.00;99367.97;5014774;28;45468;-80
2023/04/17 01:39:24;;;;;;;;;15.25;13.25;;;;;9.09;77.97;99375.00;5014922;28;45866;-81
2023/04/17 01:41:50;;;;;;;;;16.67;15.00;;;;;9.10;78.07;99379.34;5016194;28;45543;-79
2023/04/17 01:44:16;;;;;;;;;16.67;13.67;;;;;9.07;77.97;99372.41;5016202;28;45526;-79
2023/04/17 01:46:42;;;;;;;;;17.33;17.00;;;;;9.06;78.29;99373.31;5015838;28;45404;-82
2023/04/17 01:49:07;;;;;;;;;18.67;18.00;;;;;9.07;77.73;99374.16;5031259;28;45331;-79
2023/04/17 01:51:32;;;;;;;;;19.67;17.67;;;;;9.07;77.83;99367.16;5016309;28;45485;-80
2023/04/17 01:53:58;;;;;;;;;16.33;12.00;;;;;9.09;78.02;99372.38;5015702;28;46060;-79
2023/04/17 01:56:24;;;;;;;;;22.33;16.67;;;;;9.07;78.20;99375.03;5030915;28;45484;-80
2023/04/17 01:58:50;;;;;;;;;20.67;18.33;;;;;9.07;78.36;99371.53;5015502;28;45301;-80
2023/04/17 02:01:16;;;;;;;;;20.00;17.00;;;;;9.04;78.32;99361.16;5015109;28;45322;-79
2023/04/17 02:03:41;;;;;;;;;13.67;11.67;;;;;9.02;78.74;99370.84;5013952;28;45385;-79
2023/04/17 02:06:06;;;;;;;;;17.33;13.33;;;;;8.99;78.78;99368.28;5030932;28;45440;-79
2023/04/17 02:08:33;;;;;;;;;18.00;15.33;;;;;8.96;79.29;99376.28;5015907;28;45957;-80
2023/04/17 02:10:58;;;;;;;;;16.00;15.00;;;;;8.95;79.05;99374.53;5031090;28;45460;-80
2023/04/17 02:13:23;;;;;;;;;26.00;17.00;;;;;8.93;79.27;99363.22;5015496;28;45634;-79
2023/04/17 02:15:49;;;;;;;;;21.50;18.75;;;;;8.92;79.83;99357.09;5015890;28;45424;-80
2023/04/17 02:18:14;;;;;;;;;17.67;14.33;;;;;8.91;79.44;99359.75;5031088;28;45326;-80
2023/04/17 02:20:40;;;;;;;;;24.00;18.75;;;;;8.93;79.26;99355.31;5030904;28;45951;-80
2023/04/17 02:23:05;;;;;;;;;22.00;19.25;;;;;8.92;79.04;99351.81;5015633;28;46142;-80
2023/04/17 02:25:32;;;;;;;;;15.33;12.00;;;;;8.96;79.11;99358.72;5015773;28;45875;-79
2023/04/17 02:27:57;;;;;;;;;10.25;9.25;;;;;8.95;79.06;99350.88;5015635;28;45416;-79
2023/04/17 02:30:23;;;;;;;;;21.33;18.00;;;;;8.96;79.20;99360.50;5015581;28;45433;-80
2023/04/17 02:32:52;;;;;;;;;18.00;17.25;;;;;8.98;78.46;99359.56;5015248;28;45399;-80
2023/04/17 02:35:19;;;;;;;;;17.75;17.75;;;;;9.00;78.66;99354.25;5014067;28;45918;-80
2023/04/17 02:37:45;;;;;;;;;19.00;17.00;;;;;9.00;78.62;99356.88;5030651;28;45347;-80
2023/04/17 02:40:11;;;;;;;;;18.33;17.00;;;;;9.02;78.34;99361.19;5015194;28;45406;-79
2023/04/17 02:42:36;;;;;;;;;22.00;17.67;;;;;9.02;78.54;99357.69;5013680;28;48081;-79
2023/04/17 02:45:03;;;;;;;;;16.33;15.00;;;;;9.03;78.75;99372.56;5030012;28;45483;-80
2023/04/17 02:47:29;;;;;;;;;23.33;20.67;;;;;9.02;78.98;99357.69;5014976;28;45316;-80
2023/04/17 02:49:55;;;;;;;;;20.00;19.00;;;;;8.99;79.05;99360.41;5015280;28;45357;-79
2023/04/17 02:52:23;;;;;;;;;22.67;19.00;;;;;8.99;78.93;99356.00;5014988;28;45368;-79
2023/04/17 02:54:48;;;;;;;;;18.67;18.33;;;;;8.98;78.78;99351.66;5014830;28;45412;-79
2023/04/17 02:57:14;;;;;;;;;20.33;15.67;;;;;8.99;78.78;99361.28;5015087;28;45893;-80
2023/04/17 02:59:39;;;;;;;;;30.33;20.00;;;;;8.99;78.67;99350.75;5015013;28;45374;-80
2023/04/17 03:02:05;;;;;;;;;23.67;19.00;;;;;9.01;78.27;99351.56;5029721;28;47935;-80
2023/04/17 03:04:33;;;;;;;;;19.33;17.67;;;;;9.03;78.39;99362.91;5015046;28;45308;-80
2023/04/17 03:06:59;;;;;;;;;22.33;21.67;;;;;9.02;78.47;99361.19;5015074;28;45365;-79
2023/04/17 03:09:24;;;;;;;;;24.00;20.00;;;;;9.03;78.94;99351.53;5014818;28;45341;-79
2023/04/17 03:11:50;;;;;;;;;17.50;16.25;;;;;8.97;79.61;99359.59;5015023;28;45345;-79
2023/04/17 03:14:16;;;;;;;;;28.33;23.33;;;;;8.93;79.51;99356.19;5014849;28;45420;-80
2023/04/17 03:16:41;;;;;;;;;20.00;18.75;;;;;8.87;79.66;99352.91;5014178;28;45451;-80
2023/04/17 03:19:07;;;;;;;;;17.33;14.67;;;;;8.85;79.74;99350.31;5013410;28;45303;-80
2023/04/17 03:21:32;;;;;;;;;17.00;15.67;;;;;8.84;79.69;99351.22;5014286;28;46284;-80
2023/04/17 03:23:58;;;;;;;;;15.67;14.67;;;;;8.83;79.79;99360.00;5014346;28;45361;-81
2023/04/17 03:26:23;;;;;;;;;23.67;23.67;;;;;8.85;79.37;99345.06;5014393;28;45408;-80
2023/04/17 03:28:49;;;;;;;;;18.00;15.50;;;;;8.88;79.41;99367.75;5012461;28;45999;-82
2023/04/17 03:31:14;;;;;;;;;24.00;21.00;;;;;8.87;79.35;99366.03;5028861;28;46736;-80
2023/04/17 03:33:39;;;;;;;;;20.00;18.33;;;;;8.88;79.63;99367.75;5013601;28;45408;-79
2023/04/17 03:36:05;;;;;;;;;24.00;20.00;;;;;8.87;79.91;99361.66;5014317;28;45432;-80
2023/04/17 03:38:32;;;;;;;;;26.33;22.00;;;;;8.86;79.68;99377.47;5014699;28;45441;-82
2023/04/17 03:40:57;;;;;;;;;19.67;15.67;;;;;8.84;79.71;99361.72;5014516;28;46263;-80
2023/04/17 03:43:23;;;;;;;;;24.67;23.67;;;;;8.84;79.97;99360.88;5013996;28;45268;-80
2023/04/17 03:45:48;;;;;;;;;22.33;18.33;;;;;8.84;80.02;99363.50;5013755;28;45463;-79
2023/04/17 03:48:14;;;;;;;;;23.33;22.00;;;;;8.83;80.28;99362.63;5014330;28;45341;-80
2023/04/17 03:50:39;;;;;;;;;11.67;11.67;;;;;8.82;80.13;99357.41;5014085;28;46352;-81
2023/04/17 03:53:05;;;;;;;;;19.00;17.00;;;;;8.82;80.41;99358.28;5014130;28;45411;-80
2023/04/17 03:55:30;;;;;;;;;18.00;15.00;;;;;8.81;80.58;99366.22;5014195;28;45504;-80
2023/04/17 03:57:56;;;;;;;;;24.67;22.67;;;;;8.82;80.36;99357.41;5012937;28;46173;-80
2023/04/17 04:00:21;;;;;;;;;22.00;20.67;;;;;8.82;80.39;99360.03;5013897;28;45535;-79
2023/04/17 04:02:47;;;;;;;;;20.00;18.67;;;;;8.81;80.44;99361.81;5013424;28;45332;-80
2023/04/17 04:05:13;;;;;;;;;19.67;18.33;;;;;8.83;80.88;99353.88;5013429;28;45439;-80
2023/04/17 04:07:38;;;;;;;;;24.00;20.33;;;;;8.78;80.92;99354.00;5028442;28;45423;-81
2023/04/17 04:10:04;;;;;;;;;17.33;16.67;;;;;8.78;81.12;99364.53;5018623;28;48222;-80
2023/04/17 04:12:30;;;;;;;;;24.00;19.67;;;;;8.78;80.63;99354.00;5014251;28;45432;-80
2023/04/17 04:14:55;;;;;;;;;23.00;20.00;;;;;8.77;80.82;99347.03;5014402;28;45929;-80
2023/04/17 04:17:20;;;;;;;;;26.00;24.33;;;;;8.77;80.92;99347.03;5012519;28;45528;-80
2023/04/17 04:19:46;;;;;;;;;19.33;18.00;;;;;8.77;80.88;99346.16;5013807;28;45628;-79
2023/04/17 04:22:12;;;;;;;;;26.00;22.33;;;;;8.75;81.16;99344.44;5029156;28;45571;-79
2023/04/17 04:24:39;;;;;;;;;21.33;20.67;;;;;8.76;81.02;99350.56;5013600;28;45507;-80
2023/04/17 04:27:05;;;;;;;;;19.00;17.00;;;;;8.77;80.91;99347.03;5013035;28;45403;-80
2023/04/17 04:29:31;;;;;;;;;19.67;18.33;;;;;8.80;80.75;99348.72;5029591;28;47561;-80
2023/04/17 04:31:56;;;;;;;;;20.67;20.00;;;;;8.84;80.77;99352.97;5031053;28;45927;-80
2023/04/17 04:34:24;;;;;;;;;22.33;18.33;;;;;8.85;80.49;99350.31;5016015;28;45472;-80
2023/04/17 04:36:50;;;;;;;;;20.00;19.33;;;;;8.89;80.26;99348.41;5016659;28;45546;-80
2023/04/17 04:39:19;;;;;;;;;17.33;17.33;;;;;8.88;80.08;99344.94;5015968;28;45416;-80
2023/04/17 04:41:46;;;;;;;;;19.33;18.00;;;;;8.89;80.26;99345.78;5032156;28;45402;-80
2023/04/17 04:44:11;;;;;;;;;29.00;22.00;;;;;8.93;80.01;99356.19;5016498;28;45432;-80
2023/04/17 04:46:37;;;;;;;;;21.00;20.33;;;;;8.94;80.20;99355.28;5014910;28;45359;-80
2023/04/17 04:49:02;;;;;;;;;23.00;21.67;;;;;8.93;80.06;99348.28;5032117;28;45816;-80
2023/04/17 04:51:28;;;;;;;;;20.67;18.00;;;;;8.94;80.10;99355.28;5016696;28;45431;-80
2023/04/17 04:53:53;;;;;;;;;28.00;23.67;;;;;8.93;80.03;99356.19;5016527;28;45342;-80
2023/04/17 04:56:20;;;;;;;;;25.00;19.67;;;;;8.92;80.19;99356.22;5016854;28;45554;-80
2023/04/17 04:58:45;;;;;;;;;23.33;19.67;;;;;8.94;79.90;99359.69;5015186;28;46472;-80
2023/04/17 05:01:10;;;;;;;;;20.00;17.33;;;;;8.92;80.15;99353.59;5014665;28;45437;-80
2023/04/17 05:03:37;;;;;;;;;21.67;21.33;;;;;8.93;80.22;99356.19;5031561;28;45525;-79
2023/04/17 05:06:02;;;;;;;;;20.67;19.67;;;;;8.96;80.43;99352.59;5016222;28;45377;-81
2023/04/17 05:08:28;;;;;;;;;22.67;22.67;;;;;9.00;79.91;99355.09;5015568;28;45464;-80
2023/04/17 05:10:53;;;;;;;;;23.67;20.00;;;;;9.04;79.95;99358.50;5031708;28;45528;-80
2023/04/17 05:13:19;;;;;;;;;14.33;12.00;;;;;9.05;79.23;99358.44;5016141;28;45316;-80
2023/04/17 05:15:44;;;;;;;;;23.33;20.33;;;;;9.10;79.53;99366.19;5030264;28;45531;-79
2023/04/17 05:18:09;;;;;;;;;10.67;10.67;;;;;9.11;78.91;99362.66;5015953;28;45787;-80
2023/04/17 05:20:36;;;;;;;;;25.67;22.67;;;;;9.13;78.77;99360.84;5016099;28;45306;-80
2023/04/17 05:23:02;;;;;;;;;21.33;21.33;;;;;9.14;78.88;99365.22;5015810;28;45384;-80
2023/04/17 05:25:27;;;;;;;;;21.00;20.67;;;;;9.10;78.95;99360.94;5014579;28;45561;-80
2023/04/17 05:27:52;;;;;;;;;18.00;12.33;;;;;9.10;79.11;99366.19;5030248;28;47015;-80
2023/04/17 05:30:18;;;;;;;;;21.33;19.67;;;;;9.08;79.22;99368.88;5014894;28;45391;-80
2023/04/17 05:32:43;;;;;;;;;15.33;11.00;;;;;9.07;79.50;99366.28;5015053;28;45467;-80
2023/04/17 05:35:09;;;;;;;;;17.00;17.00;;;;;9.09;79.13;99367.97;5030508;28;45613;-80
2023/04/17 05:37:34;;;;;;;;;17.33;14.33;;;;;9.09;79.21;99375.84;5015234;28;45441;-80
2023/04/17 05:40:00;;;;;;;;;18.33;18.33;;;;;9.06;79.33;99369.81;5015029;28;45468;-80
2023/04/17 05:42:25;;;;;;;;;20.00;18.00;;;;;9.04;79.22;99372.53;5015860;28;45503;-80
2023/04/17 05:44:51;;;;;;;;;22.67;20.67;;;;;9.04;79.59;99385.69;5015377;28;45471;-80
2023/04/17 05:47:16;;;;;;;;;18.67;18.33;;;;;9.02;79.83;99379.59;5013953;28;47668;-80
2023/04/17 05:49:43;;;;;;;;;21.67;20.67;;;;;9.04;79.64;99385.69;5030766;28;45454;-80
2023/04/17 05:52:09;;;;;;;;;18.00;14.67;;;;;9.04;79.58;99382.19;5015797;28;45368;-80
2023/04/17 05:54:34;;;;;;;;;20.33;18.67;;;;;9.05;79.65;99391.75;5014971;28;45545;-80
2023/04/17 05:57:01;;;;;;;;;19.33;17.00;;;;;9.04;79.69;99390.94;5015160;28;45970;-80
2023/04/17 05:59:26;;;;;;;;;26.33;19.67;;;;;9.06;79.40;99396.97;5030035;28;45864;-79
2023/04/17 06:01:52;;;;;;;;;26.00;19.00;;;;;9.08;79.78;99397.81;5014999;28;45314;-80
2023/04/17 06:04:17;;;;;;;;;24.67;21.33;;;;;9.08;79.09;99395.16;5013454;28;45998;-80
2023/04/17 06:06:43;;;;;;;;;20.67;19.00;;;;;9.11;79.72;99399.47;5013543;28;46638;-80
2023/04/17 06:09:09;;;;;;;;;30.00;20.00;;;;;9.14;79.61;99404.66;5030061;28;45424;-81
2023/04/17 06:11:35;;;;;;;;;21.33;18.00;;;;;9.15;79.15;99403.75;5030062;28;45403;-80
2023/04/17 06:14:01;;;;;;;;;26.00;22.00;;;;;9.21;79.52;99405.34;5029575;28;45872;-80
2023/04/17 06:16:26;;;;;;;;;21.33;20.00;;;;;9.20;79.31;99401.00;5013026;28;47258;-81
2023/04/17 06:18:52;;;;;;;;;7.67;5.67;;;;;9.20;79.07;99399.22;5013685;28;45544;-81
2023/04/17 06:21:17;;;;;;;;;10.67;7.33;;;;;9.25;78.95;99406.97;5030557;28;46023;-80
2023/04/17 06:23:43;;;;;;;;;20.33;15.33;;;;;9.26;78.95;99393.75;5029904;28;45535;-80
2023/04/17 06:26:09;;;;;;;;;22.00;20.33;;;;;9.29;79.09;99395.44;5015317;28;45339;-79
2023/04/17 06:28:35;;;;;;;;;24.67;21.33;;;;;9.34;78.99;99394.41;5029639;28;45732;-80
2023/04/17 06:31:00;;;;;;;;;23.00;16.67;;;;;9.40;78.77;99393.31;5012721;28;45445;-79
2023/04/17 06:33:29;;;;;;;;;20.33;16.33;;;;;9.45;78.47;99397.56;5014280;28;45381;-80
2023/04/17 06:35:55;;;;;;;;;17.33;16.33;;;;;9.47;78.32;99394.88;5014323;28;45490;-80
2023/04/17 06:38:20;;;;;;;;;21.00;21.00;;;;;9.49;77.74;99406.22;5029577;28;45437;-80
2023/04/17 06:40:46;;;;;;;;;22.00;21.00;;;;;9.51;78.03;99409.66;5014218;28;45487;-80
2023/04/17 06:43:14;;;;;;;;;20.33;16.67;;;;;9.53;78.04;99405.22;5014262;28;45522;-80
2023/04/17 06:45:41;;;;;;;;;24.67;20.67;;;;;9.59;78.08;99404.16;5012868;28;45480;-80
2023/04/17 06:48:07;;;;;;;;;20.67;19.00;;;;;9.63;77.62;99398.75;5001217;28;45468;-79
2023/04/17 06:50:33;;;;;;;;;19.33;17.33;;;;;9.67;77.84;99403.00;5013952;28;45674;-79
2023/04/17 06:52:58;;;;;;;;;21.67;20.33;;;;;9.71;77.52;99404.63;5012515;28;45561;-80
2023/04/17 06:55:24;;;;;;;;;22.67;20.67;;;;;9.73;77.38;99401.94;5013396;28;46018;-80
2023/04/17 06:57:49;;;;;;;;;21.00;19.67;;;;;9.70;77.07;99402.06;5000765;28;45483;-79
2023/04/17 07:00:15;;;;;;;;;22.00;18.00;;;;;9.73;77.06;99404.56;5013404;28;45490;-79
2023/04/17 07:02:40;;;;;;;;;23.33;20.00;;;;;9.74;77.49;99409.78;5012847;28;45479;-79
2023/04/17 07:05:06;;;;;;;;;21.33;19.67;;;;;9.74;76.80;99415.03;5014010;28;45459;-79
2023/04/17 07:07:33;;;;;;;;;25.33;18.00;;;;;9.74;76.93;99411.56;5028701;28;45434;-79
2023/04/17 07:09:58;;;;;;;;;23.67;21.33;;;;;9.78;76.75;99414.03;5013960;28;45366;-79
2023/04/17 07:12:25;;;;;;;;;23.00;22.00;;;;;9.84;76.94;99413.00;5013917;28;45440;-79
2023/04/17 07:14:50;;;;;;;;;19.00;17.67;;;;;9.87;77.02;99414.69;5013671;28;46291;-79
2023/04/17 07:17:16;;;;;;;;;21.00;19.33;;;;;9.87;76.83;99415.53;5012998;28;45362;-79
2023/04/17 07:19:42;;;;;;;;;23.33;19.33;;;;;9.85;76.79;99412.09;5028998;28;45402;-79
2023/04/17 07:22:08;;;;;;;;;22.00;19.00;;;;;9.88;76.95;99417.25;5013241;28;45512;-79
2023/04/17 07:24:34;;;;;;;;;23.33;21.00;;;;;9.90;76.91;99407.50;5012966;28;45491;-79
2023/04/17 07:27:03;;;;;;;;;23.00;20.00;;;;;9.95;76.80;99417.91;5013312;28;45468;-79
2023/04/17 07:29:29;;;;;;;;;26.67;22.00;;;;;9.98;77.01;99413.41;5013806;28;45430;-79
2023/04/17 07:31:54;;;;;;;;;21.67;18.00;;;;;10.02;76.44;99412.41;5013067;28;45484;-79
2023/04/17 07:34:20;;;;;;;;;23.00;21.67;;;;;10.05;76.63;99409.63;5013166;28;45507;-79
2023/04/17 07:36:48;;;;;;;;;25.00;17.67;;;;;10.12;76.24;99416.44;5013791;28;45360;-79
2023/04/17 07:39:13;;;;;;;;;27.00;22.33;;;;;10.18;75.73;99409.25;5028186;28;45475;-79
2023/04/17 07:41:39;;;;;;;;;24.00;22.67;;;;;10.24;75.94;99417.81;5013051;28;45418;-79
2023/04/17 07:44:05;;;;;;;;;26.33;22.67;;;;;10.31;75.70;99415.84;5011571;28;47184;-79
2023/04/17 07:46:31;;;;;;;;;16.33;14.33;;;;;10.38;75.57;99412.97;5013111;28;45487;-80
2023/04/17 07:48:57;;;;;;;;;21.67;16.33;;;;;10.48;75.51;99408.22;5013171;28;45461;-79
2023/04/17 07:51:22;;;;;;;;;18.33;17.00;;;;;10.57;75.38;99415.78;5013748;28;45584;-79
2023/04/17 07:53:47;;;;;;;;;19.50;16.75;;;;;10.62;74.90;99411.22;5013533;28;46541;-79
2023/04/17 07:56:13;;;;;;;;;19.67;18.33;;;;;10.65;74.62;99413.75;5013596;28;45356;-79
2023/04/17 07:58:38;;;;;;;;;18.75;17.00;;;;;10.67;74.29;99409.28;5013934;28;45357;-79
2023/04/17 08:01:04;;;;;;;;;22.33;20.33;;;;;10.71;74.00;99418.81;5013334;28;45648;-80
2023/04/17 08:03:30;;;;;;;;;20.75;17.75;;;;;10.72;74.08;99412.63;5014919;28;45281;-79
2023/04/17 08:05:56;;;;;;;;;17.67;17.67;;;;;10.80;74.13;99410.56;5016647;28;45380;-79
2023/04/17 08:08:22;;;;;;;;;23.50;22.00;;;;;10.89;73.57;99417.28;5017234;28;45368;-79
2023/04/17 08:10:48;;;;;;;;;19.50;17.75;;;;;10.94;73.25;99410.06;5016830;28;45426;-79
2023/04/17 08:13:14;;;;;;;;;20.00;18.33;;;;;11.01;72.96;99411.56;5016616;28;45457;-79
2023/04/17 08:15:39;;;;;;;;;22.00;20.50;;;;;11.08;72.69;99415.66;5016306;28;45560;-79
2023/04/17 08:18:06;;;;;;;;;18.00;17.00;;;;;11.11;72.51;99414.69;5017051;28;45443;-79
2023/04/17 08:20:32;;;;;;;;;25.00;21.00;;;;;11.07;72.17;99418.38;5016529;28;45310;-80
2023/04/17 08:22:58;;;;;;;;;21.67;19.00;;;;;11.06;72.32;99417.50;5016532;28;45509;-79
2023/04/17 08:25:24;;;;;;;;;23.67;21.00;;;;;11.11;72.92;99409.44;5016898;28;45457;-79
2023/04/17 08:27:49;;;;;;;;;19.00;16.00;;;;;11.16;72.41;99416.25;5016916;28;45568;-79
2023/04/17 08:30:16;;;;;;;;;16.25;15.75;;;;;11.19;71.49;99416.16;5016545;28;45500;-78
2023/04/17 08:32:46;;;;;;;;;21.00;19.00;;;;;11.20;71.63;99417.00;5016113;28;46515;-79
2023/04/17 08:35:14;;;;;;;;;21.25;17.00;;;;;11.19;71.64;99418.78;5003101;28;45417;-78
2023/04/17 08:37:40;;;;;;;;;56.67;46.33;;;;;11.23;72.34;99414.22;5016569;28;45418;-80
2023/04/17 08:40:11;;;;;;;;;16.25;16.00;;;;;11.29;72.03;99414.00;5016147;28;45384;-79
2023/04/17 08:42:37;;;;;;;;;19.25;19.00;;;;;11.31;71.95;99420.09;5016258;28;45551;-80
2023/04/17 08:45:08;;;;;;;;;20.25;20.25;;;;;11.30;71.40;99413.09;5014851;28;45432;-79
2023/04/17 08:47:34;;;;;;;;;17.50;17.25;;;;;11.28;70.86;99421.97;5014189;28;45433;-79
2023/04/17 08:50:16;;;;;;;;;16.75;16.25;;;;;11.24;71.30;99418.59;5016492;28;45505;-79
2023/04/17 08:52:44;;;;;;;;;15.00;15.00;;;;;11.23;70.31;99418.69;5016074;28;46511;-79
2023/04/17 08:55:15;;;;;;;;;17.75;16.75;;;;;11.21;70.88;99420.50;5008353;28;45361;-79
2023/04/17 08:57:57;;;;;;;;;17.00;14.75;;;;;11.14;71.27;99412.81;5010001;28;45409;-80
2023/04/17 09:00:24;;;;;;;;;24.00;21.00;;;;;11.16;71.40;99410.97;5002380;28;45362;-79
2023/04/17 09:02:51;;;;;;;;;17.75;16.25;;;;;11.23;71.28;99416.03;5016727;28;47303;-79
2023/04/17 09:05:24;;;;;;;;;16.33;15.00;;;;;11.24;71.62;99412.44;5016038;28;45381;-80
2023/04/17 09:08:05;;;;;;;;;17.25;16.25;;;;;11.22;71.49;99406.41;5005343;28;45393;-79
2023/04/17 09:10:35;;;;;;;;;18.33;17.67;;;;;11.26;71.49;99408.84;5013003;28;45460;-79
2023/04/17 09:13:00;;;;;;;;;18.00;18.00;;;;;11.29;70.97;99399.94;5030548;28;47100;-79
2023/04/17 09:15:26;;;;;;;;;26.00;21.00;;;;;11.33;70.89;99404.19;5014580;28;45310;-79
2023/04/17 09:17:51;;;;;;;;;19.75;18.50;;;;;11.34;71.06;99400.66;5014108;28;45332;-79
2023/04/17 09:20:17;;;;;;;;;18.67;18.00;;;;;11.34;70.62;99400.66;5015268;28;45476;-79
2023/04/17 09:22:42;;;;;;;;;25.67;19.33;;;;;11.34;71.04;99400.66;5015602;28;46207;-80
2023/04/17 09:25:16;;;;;;;;;19.50;17.25;;;;;11.37;71.04;99393.47;5015288;28;45581;-78
2023/04/17 09:27:42;;;;;;;;;18.00;16.00;;;;;11.41;70.80;99407.38;5015154;28;45484;-60
2023/04/17 09:30:07;;;;;;;;;19.00;18.00;;;;;11.38;70.33;99404.88;5029446;28;45542;-60
2023/04/17 09:32:33;;;;;;;;;20.67;17.67;;;;;11.32;70.20;99398.06;5012656;28;47226;-60
2023/04/17 09:35:02;;;;;;;;;16.75;14.00;;;;;11.32;70.20;99397.19;5014431;28;45411;-60
2023/04/17 09:37:52;;;;;;;;;20.50;18.00;;;;;11.32;70.15;99398.06;5013635;28;45393;-59
2023/04/17 09:40:19;;;;;;;;;18.25;15.50;;;;;11.34;70.00;99398.88;5014662;28;45334;-60
2023/04/17 09:42:56;;;;;;;;;20.00;16.75;;;;;11.39;69.86;99396.06;5014564;28;45492;-60
2023/04/17 09:45:23;;;;;;;;;18.75;15.75;;;;;11.43;70.85;99395.00;5014436;28;45517;-60
2023/04/17 09:47:54;;;;;;;;;20.00;16.50;;;;;11.41;70.25;99396.81;5014509;28;45485;-60
2023/04/17 09:50:21;;;;;;;;;13.25;13.25;;;;;11.38;70.52;99397.84;5014354;28;45551;-60
2023/04/17 09:52:51;;;;;;;;;20.50;16.00;;;;;11.36;70.32;99398.81;5014351;28;45491;-60
2023/04/17 09:55:22;;;;;;;;;16.00;14.75;;;;;11.31;70.70;99393.69;5014290;28;45309;-60
2023/04/17 09:57:55;;;;;;;;;16.75;16.75;;;;;11.27;70.88;99389.44;5014761;28;45497;-60
2023/04/17 10:00:22;;;;;;;;;17.00;17.00;;;;;11.29;70.92;99398.16;5012324;28;45439;-60
2023/04/17 10:02:52;;;;;;;;;19.00;18.25;;;;;11.30;70.85;99388.47;5013839;28;46272;-60
2023/04/17 10:05:22;;;;;;;;;18.67;17.33;;;;;11.29;70.75;99395.53;5014023;28;46196;-60
2023/04/17 10:07:48;;;;;;;;;17.25;13.50;;;;;11.24;70.41;99396.63;5007311;28;45503;-60
2023/04/17 10:10:25;;;;;;;;;13.00;11.00;;;;;11.23;70.76;99393.13;5014213;28;45275;-63
2023/04/17 10:12:54;;;;;;;;;16.50;15.50;;;;;11.27;70.55;99388.59;5013690;28;46435;-63
2023/04/17 10:15:22;;;;;;;;;15.75;13.75;;;;;11.32;70.48;99384.84;5013733;28;45364;-63
2023/04/17 10:17:48;;;;;;;;;19.50;16.50;;;;;11.35;70.51;99378.59;5014465;28;45409;-63
2023/04/17 10:20:14;;;;;;;;;17.75;15.75;;;;;11.35;69.78;99382.09;5014110;28;45438;-63
2023/04/17 10:22:40;;;;;;;;;16.00;15.00;;;;;11.34;70.11;99375.09;5014241;28;45404;-63
2023/04/17 10:25:14;;;;;;;;;16.25;16.00;;;;;11.32;70.10;99395.41;5014060;28;45361;-63
2023/04/17 10:27:39;;;;;;;;;20.25;20.25;;;;;11.29;69.92;99378.84;5014081;28;45306;-63
2023/04/17 10:30:11;;;;;;;;;17.50;16.50;;;;;11.25;70.36;99383.38;5014019;28;45424;-63
2023/04/17 10:32:38;;;;;;;;;19.50;18.00;;;;;11.22;70.40;99380.88;5013428;28;46113;-63
2023/04/17 10:35:15;;;;;;;;;22.00;21.00;;;;;11.17;70.40;99377.53;5014063;28;45342;-63
2023/04/17 10:37:46;;;;;;;;;18.00;16.25;;;;;11.15;70.82;99384.66;5011454;28;45404;-63
2023/04/17 10:40:19;;;;;;;;;19.00;16.00;;;;;11.15;70.39;99374.09;5001391;28;45761;-63
2023/04/17 10:43:07;;;;;;;;;18.00;18.00;;;;;11.16;70.46;99371.41;5013483;28;46620;-63
2023/04/17 10:45:51;;;;;;;;;17.00;17.00;;;;;11.18;70.48;99373.97;5013214;28;45369;-63
2023/04/17 10:48:33;;;;;;;;;16.50;16.00;;;;;11.21;70.46;99367.72;5013997;28;45457;-63
2023/04/17 10:50:59;;;;;;;;;19.00;16.25;;;;;11.23;70.33;99365.91;5013595;28;45553;-63
2023/04/17 10:53:43;;;;;;;;;16.00;15.25;;;;;11.28;70.27;99371.84;5013689;28;45930;-63
2023/04/17 10:56:17;;;;;;;;;15.75;14.50;;;;;11.25;70.14;99370.16;5012776;28;45436;-63
2023/04/17 10:59:05;;;;;;;;;22.25;16.50;;;;;11.24;70.57;99370.22;5012922;28;45408;-63
2023/04/17 11:01:59;;;;;;;;;18.25;15.25;;;;;11.25;70.85;99369.31;5011303;28;45551;-63
2023/04/17 11:04:29;;;;;;;;;15.50;13.25;;;;;11.23;70.29;99358.81;4998701;28;45493;-63
2023/04/17 11:06:55;;;;;;;;;19.00;16.50;;;;;11.22;70.13;99369.44;5013545;28;45446;-63
2023/04/17 11:09:23;;;;;;;;;22.25;20.00;;;;;11.23;70.35;99352.69;5013701;28;45303;-63
2023/04/17 11:11:48;;;;;;;;;19.00;18.75;;;;;11.28;70.11;99345.44;5013578;28;45359;-63
2023/04/17 11:14:19;;;;;;;;;18.50;15.75;;;;;11.31;69.99;99340.03;5011923;28;47064;-63
2023/04/17 11:16:46;;;;;;;;;16.75;14.75;;;;;11.33;69.47;99336.44;5012360;28;45397;-64
2023/04/17 11:19:17;;;;;;;;;14.00;13.00;;;;;11.37;69.18;99332.75;5013466;28;45382;-63
2023/04/17 11:21:43;;;;;;;;;19.50;17.50;;;;;11.41;69.09;99347.53;5013398;28;45392;-63